Terminal Aerodrome Forecast
Issued by NWS Dodge City, KS

Home | Current Version | Previous Version | Text Only | Print | Product List | Glossary On
Versions: 1 2 3 4 5 6 7 8 9 10 11 12 13 14 15 16 17 18 19 20 21 22 23 24 25 26 27 28 29 30 31 32 33 34 35 36 37 38 39 40 41 42 43 44 45 46 47
745
FTUS43 KDDC 242213 AAB
TAFDDC
TAF AMD
KDDC 242213Z 2422/2518 19009KT P6SM BKN050 BKN060
     FM242300 02015G23KT P6SM BKN050
     FM250300 05007KT P6SM BKN200
     FM250600 02010KT P6SM OVC090
     FM250900 03005KT P6SM OVC035 PROB30 2509/2510 4SM -TSRA
      OVC025CB
     FM251400 02007KT P6SM OVC015=

USA.gov is the U.S. government's official web portal to all federal, state and local government web resources and services.